Detalii statie COMAGRA BEREGSAU [00001994]

Toti senzorii

Date Temperatura solului [C]Precipitatii [mm]Voltaj baterie [mV]Leaf Wetness [Min]HC Air temperature [C]HC Relative humidity [%]Punctul de roua [C]
medieminmaxsumaultimatimpmedieminmaxmediemediemin
2017-12-10 22:00:00 1.9 1.9 2.1 0 6854 0.48 0.32 0.62 100 0.4 0.3
2017-12-10 23:00:00 1.9 1.8 2 0 6834 0.69 0.52 0.9 100 0.6 0.5
2017-12-11 00:00:00 1.8 1.8 1.9 0 6834 1.11 0.94 1.2 100 1 0.9
2017-12-11 01:00:00 1.9 1.8 2.1 0 6806 1.39 1.26 1.51 100 1.3 1.2
2017-12-11 02:00:00 1.8 1.7 2 0.2 6806 1.5 1.37 1.73 100 1.4 1.3
2017-12-11 03:00:00 1.8 1.7 2 1 6786 1.6 1.39 1.8 100 1.5 1.3
2017-12-11 04:00:00 1.8 1.7 1.9 0.6 6786 1.5 1.23 2.18 100 1.4 1.2
2017-12-11 05:00:00 1.8 1.7 1.9 1.4 6776 2.7 2.35 2.84 100 2.6 2.3
2017-12-11 06:00:00 1.7 1.7 1.9 1 6766 2.76 2.66 2.82 100 2.7 2.6
2017-12-11 07:00:00 1.7 1.7 1.9 0.2 6748 3.06 2.74 3.31 100 3 2.7
2017-12-11 08:00:00 1.8 1.7 1.9 0.4 6756 3.61 3.15 4 100 3.5 3.1
2017-12-11 09:00:00 1.8 1.8 2 0.2 6756 4.61 4.04 5.17 100 4.5 4
2017-12-11 10:00:00 2 2 2.2 0 6766 5.44 5.06 5.81 100 5.4 5
2017-12-11 11:00:00 2.1 2 2.3 0 6864 6.35 5.83 6.84 100 6.3 5.8
2017-12-11 12:00:00 2.3 2.1 2.5 0 6982 7.06 6.95 7.22 100 7 6.9
2017-12-11 13:00:00 2.5 2.4 2.7 0 7080 7.89 7.22 8.52 100 7.8 7.2
2017-12-11 14:00:00 2.8 2.6 3.1 0 7050 8.75 8.59 8.89 100 8.7 8.5
2017-12-11 15:00:00 3.1 3 3.3 0 7030 8.7 8.59 8.77 100 8.6 8.5
2017-12-11 16:00:00 3.4 3.3 3.7 0 6982 8.41 8.24 8.63 100 8.3 8.2
2017-12-11 17:00:00 3.6 3.4 3.8 0 6904 7.97 7.81 8.22 100 7.9 7.8
2017-12-11 18:00:00 3.7 3.6 3.9 0 6894 7.58 7.45 7.74 100 7.5 7.4
2017-12-11 19:00:00 3.8 3.7 3.9 0 6854 7.82 7.64 7.95 100 7.7 7.6
2017-12-11 20:00:00 3.8 3.8 3.9 0 6854 8.21 7.97 8.38 100 8.1 7.9
2017-12-11 21:00:00 3.9 3.8 4 0 6834 8.08 7.86 8.25 100 8 7.8
2017-12-11 22:00:00 3.9 3.9 4.1 0 6816 6.99 6.17 7.78 100 6.9 6.1
2017-12-11 23:00:00 3.9 3.8 4.1 0 6826 6.75 6.53 6.89 100 6.7 6.5
2017-12-12 00:00:00 3.9 3.8 4.1 0 6806 7.03 6.95 7.14 100 7 6.9
2017-12-12 01:00:00 3.9 3.9 4.1 0 6796 7.11 6.94 7.36 100 7 6.9
2017-12-12 02:00:00 4 3.9 4.1 0 6776 7.08 6.89 7.25 100 7 6.8
2017-12-12 03:00:00 3.9 3.8 4.1 0 6786 7.26 7.06 7.48 100 7.2 7
2017-12-12 04:00:00 3.9 3.9 4.1 0 6756 7.53 7.4 7.67 100 7.5 7.4
2017-12-12 05:00:00 3.9 3.9 4.1 0 6766 8.35 7.66 8.79 100 8.3 7.6
2017-12-12 06:00:00 4 4 4.1 0 6766 9.17 8.8 9.55 100 9.1 8.8
2017-12-12 07:00:00 4.1 4 4.3 0 6766 9.9 9.45 10.21 100 9.8 9.4
2017-12-12 08:00:00 4.2 4.1 4.3 0 6748 10.43 10.34 10.69 100 10.3 10.3
2017-12-12 09:00:00 4.3 4.3 4.5 0 6776 10.6 10.53 10.66 100 10.5 10.5
2017-12-12 10:00:00 4.5 4.5 4.6 0 6826 10.94 10.71 11.14 100 10.8 10.7
2017-12-12 11:00:00 4.6 4.5 4.8 0 6922 11.57 11.16 12.07 100 11.5 11.1
2017-12-12 12:00:00 4.9 4.8 5 0 6982 12.44 12.14 12.67 100 12.4 12.1
2017-12-12 13:00:00 5.1 5 5.4 0 7030 13.26 12.76 13.45 100 13.2 12.7
2017-12-12 14:00:00 5.4 5.2 5.6 0 7030 13.46 13.41 13.51 100 13.4 13.4
2017-12-12 15:00:00 5.8 5.6 6 0 7030 13.54 13.41 13.62 100 13.4 13.4
2017-12-12 16:00:00 6 5.8 6.2 0 6972 13.55 13.51 13.62 100 13.5 13.5
2017-12-12 17:00:00 6.2 6.1 6.5 0 6914 12.89 12.28 13.45 100 12.8 12.2
2017-12-12 18:00:00 6.3 6.2 6.5 0 6884 11.42 10.96 12.13 100 11.3 10.9
2017-12-12 19:00:00 6.4 6.3 6.6 0 6864 11.49 11.15 11.72 100 11.4 11.1
2017-12-12 20:00:00 6.4 6.2 6.6 0 6834 10.77 10.27 11.45 100 10.7 10.2
2017-12-12 21:00:00 6.3 6.2 6.5 0 6834 9.43 8.72 9.91 100 9.4 8.7